Henry Post Army Air Field (Fort Sill)
KFSI : now visible

Airfield :











YOU CAN JOIN US ON...

 
LOGIN :

Register | Disclaimer

   EN    FR    IT 

 









Legend :    VFR   Marginal VFR   IFR   Intensive IFR   Very Intensive IFR
Visi :
Ceiling :
>= 8 km
>= 3000ft
5 to 8 km
1000 to 3000 ft
1500m to 5 km
500 to 1000 ft
800 to 1500m
200 to 500 ft
< 800m
< 200 ft
Symbols :   Thunderstorms  Fog  Heavy snow  Heavy precipitations  Wind > 20 kt







- Airport Elevation : 1189 ft


KFSI - Henry Post Army Air Field (Fort Sill)

CURRENT METAR :
  • 181556Z AUTO 01022G33KT 10SM CLR 18/06 A2992 RMK AO2 PK WND 36033/49 SLP127 T01800062

EXPIRED METARs :
  • 181456Z AUTO 36023G30KT 10SM CLR 15/08 A2990 RMK AO2 PK WND 01032/31 SLP120 T01520080 52024
  • 181356Z AUTO 36015G23KT 10SM SCT160 SCT180 13/10 A2989 RMK AO2 PK WND 02026/10 SLP117 T01290095 $

TAF TAF KFSI
Valid from the 18 at 13:00 until the 19 at 19:00 UTC


181300Z 1813/1919 01020G30KT 9999 SCT120 QNH2978INS
TEMPO 1815/1821 01025G35KT 520002
BECMG 1821/1822 34009KT 9999 FEW070 SCT150 QNH2985INS
BECMG 1914/1915 34015G25KT 9999 SKC QNH3009INS TX21/1820Z TN06/1911Z
KZFW FIR / North America



MET'MAP, your aeronautical weather chart ! - Copyright ORBIFLY December 2007 - Disclaimer

ORBIFLY MET'MAP TEAM :

Programming & Development : Alexandra Zaïnal
Concept & Development : Baudouin d'Aumeries
Co-Development & Prog : Marc-Olivier Méhu
Technical & hardware support : Manuel Goepfert

Contact : metmap@orbifly.com




SOURCES & CREDITS :

   NOAA       Earth
Advisory